createdAt,value
2018-11-05T00:00:19.809Z,13.17
2018-11-05T00:02:50.825Z,13.33
2018-11-05T00:05:20.208Z,15.63
2018-11-05T00:07:49.376Z,13.30
2018-11-05T00:10:18.428Z,13.23
2018-11-05T00:12:47.538Z,12.23
2018-11-05T00:15:16.607Z,12.27
2018-11-05T00:17:45.723Z,13.50
2018-11-05T00:20:14.881Z,13.83
2018-11-05T00:22:44.081Z,14.50
2018-11-05T00:25:13.790Z,12.33
2018-11-05T00:27:43.260Z,11.57
2018-11-05T00:30:13.712Z,9.53
2018-11-05T00:32:43.224Z,9.67
2018-11-05T00:35:12.553Z,6.93
2018-11-05T00:37:41.649Z,6.70
2018-11-05T00:40:15.828Z,6.63
2018-11-05T00:42:45.779Z,5.20
2018-11-05T00:45:15.388Z,4.40
2018-11-05T00:47:44.939Z,4.13
2018-11-05T00:50:15.513Z,4.63
2018-11-05T00:52:44.737Z,3.43
2018-11-05T00:55:14.109Z,2.87
2018-11-05T00:57:43.186Z,3.80
2018-11-05T01:00:15.311Z,2.90
2018-11-05T01:02:44.495Z,3.20
2018-11-05T01:05:15.122Z,3.93
2018-11-05T01:07:45.057Z,3.17
2018-11-05T01:10:15.220Z,3.33
2018-11-05T01:12:44.461Z,3.80
2018-11-05T01:15:14.707Z,3.07
2018-11-05T01:17:43.786Z,2.57
2018-11-05T01:20:14.094Z,3.23
2018-11-05T01:22:43.158Z,3.23
2018-11-05T01:25:12.349Z,4.23
2018-11-05T01:27:41.428Z,2.93
2018-11-05T01:30:11.985Z,4.17
2018-11-05T01:32:41.204Z,3.30
2018-11-05T01:35:12.239Z,4.13
2018-11-05T01:37:41.517Z,3.73
2018-11-05T01:40:13.114Z,5.50
2018-11-05T01:42:42.373Z,4.00
2018-11-05T01:45:13.492Z,4.27
2018-11-05T01:47:43.283Z,3.77
2018-11-05T01:50:14.231Z,3.87
2018-11-05T01:52:44.034Z,4.17
2018-11-05T01:55:13.289Z,3.50
2018-11-05T01:57:42.625Z,3.93
2018-11-05T02:00:14.664Z,4.53
2018-11-05T02:02:44.259Z,3.70
2018-11-05T02:05:13.360Z,3.53
2018-11-05T02:07:43.719Z,4.63
2018-11-05T02:10:15.289Z,2.57
2018-11-05T02:12:44.440Z,3.50
2018-11-05T02:15:13.768Z,4.53
2018-11-05T02:17:44.944Z,3.60
2018-11-05T02:20:15.103Z,3.27
2018-11-05T02:22:44.265Z,2.80
2018-11-05T02:25:14.003Z,2.53
2018-11-05T02:27:43.366Z,1.90
2018-11-05T02:30:15.133Z,2.20
2018-11-05T02:32:44.177Z,2.90
2018-11-05T02:35:14.130Z,2.60
2018-11-05T02:37:43.978Z,2.80
2018-11-05T02:40:14.030Z,2.53
2018-11-05T02:42:43.671Z,2.37
2018-11-05T02:45:13.883Z,3.50
2018-11-05T02:47:43.110Z,4.37
2018-11-05T02:50:13.143Z,3.93
2018-11-05T02:52:43.198Z,5.13
2018-11-05T02:55:12.388Z,3.63
2018-11-05T02:57:41.475Z,3.27
2018-11-05T03:00:13.870Z,3.97
2018-11-05T03:02:43.148Z,3.40
2018-11-05T03:05:15.146Z,3.73
2018-11-05T03:07:45.050Z,4.20
2018-11-05T03:10:14.432Z,5.10
2018-11-05T03:12:44.323Z,4.27
2018-11-05T03:15:14.665Z,3.30
2018-11-05T03:17:43.770Z,3.57
2018-11-05T03:20:14.008Z,3.27
2018-11-05T03:22:43.643Z,3.90
2018-11-05T03:25:12.752Z,3.87
2018-11-05T03:27:42.218Z,3.77
2018-11-05T03:30:14.458Z,4.97
2018-11-05T03:32:43.614Z,4.17
2018-11-05T03:35:13.601Z,5.97
2018-11-05T03:37:43.597Z,5.63
2018-11-05T03:40:13.304Z,4.53
2018-11-05T03:42:42.989Z,4.10
2018-11-05T03:45:14.471Z,4.90
2018-11-05T03:47:43.836Z,5.27
2018-11-05T03:50:14.633Z,5.03
2018-11-05T03:52:44.521Z,4.93
2018-11-05T03:55:14.138Z,4.93
2018-11-05T03:57:43.187Z,4.60
2018-11-05T04:00:14.040Z,5.57
2018-11-05T04:02:43.152Z,4.03
2018-11-05T04:05:12.229Z,7.43
2018-11-05T04:07:41.338Z,4.57
2018-11-05T04:10:11.608Z,4.00
2018-11-05T04:12:40.706Z,3.73
2018-11-05T04:15:10.422Z,3.57
2018-11-05T04:17:39.524Z,6.03
2018-11-05T04:20:10.611Z,3.17
2018-11-05T04:22:39.857Z,2.63
2018-11-05T04:25:09.004Z,3.10
2018-11-05T04:27:38.171Z,4.33
2018-11-05T04:30:10.551Z,3.43
2018-11-05T04:32:39.821Z,3.00
2018-11-05T04:35:09.196Z,5.13
2018-11-05T04:37:38.369Z,4.13
2018-11-05T04:40:08.515Z,4.07
2018-11-05T04:42:37.672Z,3.50
2018-11-05T04:45:08.331Z,4.00
2018-11-05T04:47:37.542Z,6.10
2018-11-05T04:50:07.992Z,2.93
2018-11-05T04:52:37.325Z,4.33
2018-11-05T04:55:06.764Z,3.47
2018-11-05T04:57:36.026Z,6.67
2018-11-05T05:00:10.030Z,5.37
2018-11-05T05:02:40.453Z,4.03
2018-11-05T05:05:10.338Z,4.20
2018-11-05T05:07:39.443Z,3.13
2018-11-05T05:10:09.229Z,5.13
2018-11-05T05:12:39.285Z,4.70
2018-11-05T05:15:08.778Z,6.57
2018-11-05T05:17:38.222Z,4.50
2018-11-05T05:20:09.675Z,4.17
2018-11-05T05:22:38.855Z,4.10
2018-11-05T05:25:07.950Z,4.70
2018-11-05T05:27:36.998Z,5.40
2018-11-05T05:30:09.275Z,4.80
2018-11-05T05:32:38.553Z,5.10
2018-11-05T05:35:07.656Z,7.17
2018-11-05T05:37:36.773Z,6.30
2018-11-05T05:40:06.432Z,6.40
2018-11-05T05:42:35.553Z,5.80
2018-11-05T05:45:05.302Z,5.70
2018-11-05T05:47:34.456Z,5.43
2018-11-05T05:50:04.106Z,7.17
2018-11-05T05:52:33.187Z,7.43
2018-11-05T05:55:02.338Z,7.43
2018-11-05T05:57:31.432Z,9.13
2018-11-05T06:00:00.776Z,7.97
2018-11-05T06:02:29.784Z,8.67
2018-11-05T06:04:58.886Z,8.57
2018-11-05T06:07:27.966Z,11.73
2018-11-05T06:09:56.977Z,10.47
2018-11-05T06:12:26.029Z,9.57
2018-11-05T06:14:55.135Z,12.53
2018-11-05T06:17:24.284Z,12.07
2018-11-05T06:19:53.340Z,11.83
2018-11-05T06:22:22.436Z,11.60
2018-11-05T06:24:51.570Z,10.77
2018-11-05T06:27:20.660Z,10.23
2018-11-05T06:29:50.068Z,11.03
2018-11-05T06:32:19.138Z,11.03
2018-11-05T06:34:48.225Z,13.77
2018-11-05T06:37:17.296Z,14.20
2018-11-05T06:39:46.363Z,14.47
2018-11-05T06:42:15.523Z,12.87
2018-11-05T06:44:44.653Z,11.93
2018-11-05T06:47:13.782Z,12.90
2018-11-05T06:49:42.925Z,13.30
2018-11-05T06:52:12.054Z,14.53
2018-11-05T06:54:41.240Z,13.83
2018-11-05T06:57:10.680Z,13.10
2018-11-05T06:59:39.719Z,15.23
2018-11-05T07:02:08.961Z,14.27
2018-11-05T07:04:38.066Z,14.80
2018-11-05T07:07:07.284Z,15.07
2018-11-05T07:09:36.448Z,15.97
2018-11-05T07:12:05.778Z,15.57
2018-11-05T07:14:34.841Z,15.40
2018-11-05T07:17:03.929Z,12.90
2018-11-05T07:19:33.000Z,15.87
2018-11-05T07:22:02.324Z,14.27
2018-11-05T07:24:31.396Z,13.83
2018-11-05T07:27:00.496Z,15.50
2018-11-05T07:29:29.724Z,14.00
2018-11-05T07:31:58.772Z,13.90
2018-11-05T07:34:27.983Z,15.47
2018-11-05T07:36:56.947Z,15.30
2018-11-05T07:39:26.001Z,15.00
2018-11-05T07:41:55.112Z,18.17
2018-11-05T07:44:24.249Z,16.63
2018-11-05T07:46:53.337Z,19.77
2018-11-05T07:49:22.471Z,14.40
2018-11-05T07:51:51.515Z,17.63
2018-11-05T07:54:20.664Z,18.67
2018-11-05T07:56:49.692Z,17.63
2018-11-05T07:59:18.795Z,18.27
2018-11-05T08:01:47.918Z,18.13
2018-11-05T08:04:17.015Z,18.07
2018-11-05T08:06:46.137Z,17.13
2018-11-05T08:09:15.175Z,14.17
2018-11-05T08:11:44.296Z,17.27
2018-11-05T08:14:13.449Z,17.97
2018-11-05T08:16:42.624Z,17.77
2018-11-05T08:19:11.722Z,18.00
2018-11-05T08:21:40.851Z,16.17
2018-11-05T08:24:09.947Z,18.57
2018-11-05T08:26:39.016Z,18.13
2018-11-05T08:29:08.105Z,15.07
2018-11-05T08:31:37.132Z,16.60
2018-11-05T08:34:06.278Z,15.53
2018-11-05T08:36:35.771Z,15.40
2018-11-05T08:39:07.206Z,20.80
2018-11-05T08:41:36.323Z,17.00
2018-11-05T08:44:06.173Z,17.00
2018-11-05T08:46:35.340Z,17.50
2018-11-05T08:49:04.513Z,18.40
2018-11-05T08:51:34.156Z,17.20
2018-11-05T08:54:03.117Z,18.20
2018-11-05T08:56:32.194Z,20.47
2018-11-05T08:59:01.252Z,19.47
2018-11-05T09:01:32.354Z,18.87
2018-11-05T09:04:01.930Z,15.10
2018-11-05T09:06:31.163Z,16.17
2018-11-05T09:09:00.310Z,17.73
2018-11-05T09:11:29.531Z,16.57
2018-11-05T09:13:58.553Z,15.40
2018-11-05T09:16:27.569Z,15.00
2018-11-05T09:18:56.668Z,16.00
2018-11-05T09:21:25.773Z,15.60
2018-11-05T09:23:54.894Z,15.57
2018-11-05T09:26:23.937Z,11.00
2018-11-05T09:28:53.056Z,11.33
2018-11-05T09:31:22.138Z,11.87
2018-11-05T09:33:51.228Z,8.57
2018-11-05T09:36:20.404Z,10.87
2018-11-05T09:38:49.492Z,8.97
2018-11-05T09:41:18.710Z,9.43
2018-11-05T09:43:47.844Z,7.90
2018-11-05T09:46:16.938Z,6.97
2018-11-05T09:48:46.063Z,8.33
2018-11-05T09:51:15.149Z,7.20
2018-11-05T09:53:44.243Z,8.17
2018-11-05T09:56:13.369Z,6.80
2018-11-05T09:58:42.429Z,6.83
2018-11-05T10:01:11.522Z,7.33
2018-11-05T10:03:45.885Z,5.47
2018-11-05T10:06:14.934Z,6.03
2018-11-05T10:08:43.997Z,8.37
2018-11-05T10:11:13.089Z,5.93
2018-11-05T10:13:42.305Z,5.80
2018-11-05T10:16:11.400Z,7.67
2018-11-05T10:18:40.510Z,6.30
2018-11-05T10:21:09.552Z,6.53
2018-11-05T10:23:38.632Z,5.90
2018-11-05T10:26:07.864Z,7.10
2018-11-05T10:28:36.989Z,8.13
2018-11-05T10:31:06.168Z,6.80
2018-11-05T10:33:35.396Z,6.33
2018-11-05T10:36:04.597Z,7.47
2018-11-05T10:38:33.800Z,6.40
2018-11-05T10:41:02.921Z,5.63
2018-11-05T10:43:32.000Z,6.93
2018-11-05T10:46:01.062Z,5.33
2018-11-05T10:48:30.171Z,5.80
2018-11-05T10:50:59.281Z,5.77
2018-11-05T10:53:28.373Z,8.37
2018-11-05T10:55:57.493Z,7.60
2018-11-05T10:58:26.600Z,6.47
2018-11-05T11:01:00.828Z,6.03
2018-11-05T11:03:34.819Z,5.97
2018-11-05T11:06:05.432Z,5.83
2018-11-05T11:08:34.579Z,6.63
2018-11-05T11:11:03.680Z,8.43
2018-11-05T11:13:32.698Z,6.03
2018-11-05T11:16:01.712Z,7.50
2018-11-05T11:18:30.792Z,8.07
2018-11-05T11:21:00.841Z,9.00
2018-11-05T11:23:30.032Z,7.03
2018-11-05T11:25:59.104Z,6.30
2018-11-05T11:28:28.216Z,8.63
2018-11-05T11:30:57.285Z,9.87
2018-11-05T11:33:26.443Z,12.07
2018-11-05T11:35:55.605Z,10.10
2018-11-05T11:38:24.665Z,8.40
2018-11-05T11:40:53.693Z,8.03
2018-11-05T11:43:22.757Z,8.70
2018-11-05T11:45:51.861Z,12.30
2018-11-05T11:48:20.965Z,10.60
2018-11-05T11:50:50.120Z,10.67
2018-11-05T11:53:19.325Z,8.90
2018-11-05T11:55:48.430Z,9.43
2018-11-05T11:58:17.493Z,8.77
2018-11-05T12:00:46.878Z,10.63
2018-11-05T12:03:15.971Z,10.20
2018-11-05T12:05:45.107Z,8.60
2018-11-05T12:08:14.236Z,11.83
2018-11-05T12:10:43.336Z,10.27
2018-11-05T12:13:12.380Z,10.30
2018-11-05T12:15:41.382Z,11.83
2018-11-05T12:18:10.528Z,9.80
2018-11-05T12:20:39.731Z,9.40
2018-11-05T12:23:08.781Z,11.90
2018-11-05T12:25:37.928Z,8.13
2018-11-05T12:28:07.099Z,10.87
2018-11-05T12:30:36.137Z,10.20
2018-11-05T12:33:05.449Z,10.00
2018-11-05T12:35:34.508Z,8.40
2018-11-05T12:38:03.604Z,9.70
2018-11-05T12:40:32.687Z,10.20
2018-11-05T12:43:01.808Z,10.37
2018-11-05T12:45:30.876Z,9.07
2018-11-05T12:48:00.050Z,9.57
2018-11-05T12:50:29.228Z,11.17
2018-11-05T12:52:58.273Z,9.90
2018-11-05T12:55:27.351Z,9.97
2018-11-05T12:57:56.399Z,9.80
2018-11-05T13:00:26.188Z,9.83
2018-11-05T13:02:59.450Z,10.97
2018-11-05T13:05:29.903Z,11.67
2018-11-05T13:07:58.988Z,12.23
2018-11-05T13:10:28.049Z,10.40
2018-11-05T13:12:57.147Z,12.73
2018-11-05T13:15:26.573Z,10.93
2018-11-05T13:17:55.549Z,10.70
2018-11-05T13:20:25.038Z,10.60
2018-11-05T13:22:54.098Z,11.80
2018-11-05T13:25:23.150Z,12.70
2018-11-05T13:27:52.667Z,12.20
2018-11-05T13:30:21.804Z,11.17
2018-11-05T13:32:50.934Z,12.20
2018-11-05T13:35:21.293Z,11.37
2018-11-05T13:37:50.928Z,10.87
2018-11-05T13:40:20.778Z,11.13
2018-11-05T13:42:50.455Z,10.33
2018-11-05T13:45:20.117Z,10.93
2018-11-05T13:47:50.273Z,12.70
2018-11-05T13:50:19.267Z,15.07
2018-11-05T13:52:48.075Z,16.13
2018-11-05T13:55:17.857Z,13.20
2018-11-05T13:57:48.119Z,16.10
2018-11-05T14:00:18.579Z,16.53
2018-11-05T14:02:47.689Z,17.80
2018-11-05T14:05:16.738Z,14.90
2018-11-05T14:07:45.851Z,17.83
2018-11-05T14:10:18.705Z,15.70
2018-11-05T14:12:48.360Z,18.60
2018-11-05T14:15:17.498Z,17.63
2018-11-05T14:17:46.815Z,16.07
2018-11-05T14:20:17.195Z,20.70
2018-11-05T14:22:46.257Z,18.47
2018-11-05T14:25:16.665Z,14.87
2018-11-05T14:27:47.297Z,15.93
2018-11-05T14:30:16.776Z,16.07
2018-11-05T14:32:46.720Z,15.60
2018-11-05T14:35:15.891Z,17.37
2018-11-05T14:37:44.929Z,15.47
2018-11-05T14:40:15.607Z,17.67
2018-11-05T14:42:44.809Z,17.20
2018-11-05T14:45:15.191Z,14.37
2018-11-05T14:47:45.215Z,15.13
2018-11-05T14:50:16.051Z,14.90
2018-11-05T14:52:45.175Z,18.07
2018-11-05T14:55:15.927Z,15.57
2018-11-05T14:57:46.057Z,16.37
2018-11-05T15:00:17.355Z,17.60
2018-11-05T15:02:47.319Z,18.03
2018-11-05T15:05:16.885Z,19.63
2018-11-05T15:07:46.813Z,19.83
2018-11-05T15:10:18.043Z,16.60
2018-11-05T15:12:47.184Z,19.97
2018-11-05T15:15:17.114Z,18.40
2018-11-05T15:17:46.652Z,20.40
2018-11-05T15:20:17.427Z,23.20
2018-11-05T15:22:46.387Z,24.20
2018-11-05T15:25:15.806Z,27.70
2018-11-05T15:27:44.974Z,24.63
2018-11-05T15:30:16.484Z,28.37
2018-11-05T15:32:45.812Z,29.43
2018-11-05T15:35:15.120Z,34.50
2018-11-05T15:37:44.732Z,33.43
2018-11-05T15:40:15.911Z,34.80
2018-11-05T15:42:45.188Z,31.00
2018-11-05T15:45:16.631Z,32.13
2018-11-05T15:47:45.772Z,32.87
2018-11-05T15:50:16.235Z,33.60
2018-11-05T15:52:45.720Z,34.17
2018-11-05T15:55:14.734Z,31.47
2018-11-05T15:57:43.852Z,35.13
2018-11-05T16:00:24.159Z,33.50
2018-11-05T16:02:58.697Z,33.80
2018-11-05T16:05:27.902Z,30.73
2018-11-05T16:07:57.804Z,31.97
2018-11-05T16:10:26.931Z,29.47
2018-11-05T16:12:56.054Z,26.20
2018-11-05T16:15:25.260Z,31.83
2018-11-05T16:17:54.382Z,26.17
2018-11-05T16:20:24.133Z,25.67
2018-11-05T16:22:53.578Z,29.77
2018-11-05T16:25:22.657Z,28.57
2018-11-05T16:27:51.804Z,24.80
2018-11-05T16:30:21.805Z,32.53
2018-11-05T16:32:51.772Z,32.50
2018-11-05T16:35:20.930Z,39.63
2018-11-05T16:37:50.079Z,29.23
2018-11-05T16:40:19.920Z,28.73
2018-11-05T16:42:50.323Z,32.63
2018-11-05T16:45:19.441Z,30.03
2018-11-05T16:47:48.915Z,32.10
2018-11-05T16:50:24.747Z,29.27
2018-11-05T16:52:53.992Z,28.90
2018-11-05T16:55:23.409Z,27.80
2018-11-05T16:57:52.521Z,25.47
2018-11-05T17:00:21.603Z,24.90
2018-11-05T17:02:50.955Z,25.27
2018-11-05T17:05:20.140Z,29.53
2018-11-05T17:07:49.276Z,26.83
2018-11-05T17:10:18.464Z,22.50
2018-11-05T17:12:47.697Z,24.23
2018-11-05T17:15:17.534Z,22.90
2018-11-05T17:17:46.715Z,24.37
2018-11-05T17:20:16.979Z,26.53
2018-11-05T17:22:47.104Z,25.97
2018-11-05T17:25:16.776Z,23.27
2018-11-05T17:27:46.577Z,21.97
2018-11-05T17:30:18.421Z,24.43
2018-11-05T17:32:47.583Z,22.07
2018-11-05T17:35:16.946Z,25.20
2018-11-05T17:37:46.595Z,23.03
2018-11-05T17:40:17.748Z,22.10
2018-11-05T17:42:46.807Z,27.27
2018-11-05T17:45:17.210Z,22.60
2018-11-05T17:47:46.677Z,24.33
2018-11-05T17:50:17.165Z,22.30
2018-11-05T17:52:46.294Z,22.03
2018-11-05T17:55:15.755Z,24.70
2018-11-05T17:57:45.984Z,24.07
2018-11-05T18:00:17.545Z,23.13
2018-11-05T18:02:46.794Z,23.43
2018-11-05T18:05:15.918Z,23.87
2018-11-05T18:07:45.281Z,19.23
2018-11-05T18:10:14.388Z,22.43
2018-11-05T18:12:43.544Z,22.07
2018-11-05T18:15:13.321Z,23.23
2018-11-05T18:17:43.567Z,22.20
2018-11-05T18:20:13.791Z,23.57
2018-11-05T18:22:43.112Z,20.97
2018-11-05T18:25:14.777Z,27.47
2018-11-05T18:27:44.210Z,21.57
2018-11-05T18:30:14.148Z,19.57
2018-11-05T18:32:43.271Z,20.73
2018-11-05T18:35:13.476Z,21.03
2018-11-05T18:37:43.552Z,22.07
2018-11-05T18:40:14.145Z,20.40
2018-11-05T18:42:43.699Z,22.50
2018-11-05T18:45:13.369Z,21.40
2018-11-05T18:47:42.502Z,22.47
2018-11-05T18:50:13.438Z,24.03
2018-11-05T18:52:42.847Z,21.03
2018-11-05T18:55:13.391Z,20.23
2018-11-05T18:57:42.569Z,20.77
2018-11-05T19:00:24.835Z,22.67
2018-11-05T19:02:54.900Z,21.00
2018-11-05T19:05:25.288Z,18.30
2018-11-05T19:07:54.468Z,25.63
2018-11-05T19:10:23.639Z,19.03
2018-11-05T19:12:54.996Z,19.30
2018-11-05T19:15:24.153Z,25.67
2018-11-05T19:17:53.249Z,21.40
2018-11-05T19:20:22.416Z,23.27
2018-11-05T19:22:51.661Z,17.57
2018-11-05T19:25:20.838Z,17.13
2018-11-05T19:27:50.067Z,17.87
2018-11-05T19:30:27.184Z,19.20
2018-11-05T19:32:56.235Z,21.03
2018-11-05T19:35:25.277Z,20.63
2018-11-05T19:37:54.402Z,21.53
2018-11-05T19:40:23.657Z,24.07
2018-11-05T19:42:52.799Z,19.17
2018-11-05T19:45:23.221Z,20.57
2018-11-05T19:47:52.320Z,22.97
2018-11-05T19:50:22.953Z,17.50
2018-11-05T19:52:52.855Z,21.10
2018-11-05T19:55:22.262Z,22.13
2018-11-05T19:57:52.244Z,18.90
2018-11-05T20:00:23.866Z,19.27
2018-11-05T20:02:53.624Z,23.03
2018-11-05T20:05:22.899Z,24.17
2018-11-05T20:07:52.696Z,28.97
2018-11-05T20:10:21.792Z,24.40
2018-11-05T20:12:51.007Z,25.77
2018-11-05T20:15:20.189Z,29.17
2018-11-05T20:17:50.368Z,31.23
2018-11-05T20:20:20.875Z,29.17
2018-11-05T20:22:50.016Z,30.93
2018-11-05T20:25:19.479Z,32.97
2018-11-05T20:27:48.645Z,33.17
2018-11-05T20:30:20.556Z,31.07
2018-11-05T20:32:51.250Z,34.03
2018-11-05T20:35:20.480Z,33.00
2018-11-05T20:37:50.520Z,29.43
2018-11-05T20:40:21.431Z,33.43
2018-11-05T20:42:52.362Z,28.60
2018-11-05T20:45:23.613Z,28.30
2018-11-05T20:47:54.300Z,29.13
2018-11-05T20:50:25.449Z,26.57
2018-11-05T20:52:55.678Z,27.40
2018-11-05T20:55:25.928Z,27.20
2018-11-05T20:57:56.241Z,24.80
2018-11-05T21:00:26.386Z,22.60
2018-11-05T21:02:56.432Z,26.57
2018-11-05T21:05:26.363Z,25.60
2018-11-05T21:07:56.207Z,27.43
2018-11-05T21:10:26.003Z,23.07
2018-11-05T21:12:55.697Z,23.43
2018-11-05T21:15:25.344Z,23.63
2018-11-05T21:17:55.102Z,26.13
2018-11-05T21:20:24.522Z,25.20
2018-11-05T21:22:54.258Z,23.53
2018-11-05T21:25:23.602Z,24.63
2018-11-05T21:27:52.687Z,24.07
2018-11-05T21:30:22.295Z,27.50
2018-11-05T21:32:51.386Z,27.00
2018-11-05T21:35:21.417Z,26.30
2018-11-05T21:37:50.540Z,25.20
2018-11-05T21:40:20.071Z,26.60
2018-11-05T21:42:49.236Z,25.80
2018-11-05T21:45:18.447Z,24.60
2018-11-05T21:47:47.548Z,25.77
2018-11-05T21:50:17.805Z,24.67
2018-11-05T21:52:50.291Z,27.00
2018-11-05T21:55:19.488Z,25.03
2018-11-05T21:57:49.473Z,26.77
2018-11-05T22:00:21.592Z,25.03
2018-11-05T22:02:56.006Z,22.97
2018-11-05T22:05:25.138Z,23.57
2018-11-05T22:07:54.279Z,23.37
2018-11-05T22:10:23.485Z,25.60
2018-11-05T22:12:52.568Z,29.20
2018-11-05T22:15:21.717Z,25.27
2018-11-05T22:17:50.757Z,24.10
2018-11-05T22:20:19.802Z,28.20
2018-11-05T22:22:48.931Z,23.00
2018-11-05T22:25:18.035Z,28.23
2018-11-05T22:27:47.121Z,24.83
2018-11-05T22:30:16.293Z,26.57
2018-11-05T22:32:45.525Z,24.23
2018-11-05T22:35:14.721Z,23.53
2018-11-05T22:37:43.878Z,22.53
2018-11-05T22:40:14.196Z,24.03
2018-11-05T22:42:43.299Z,25.80
2018-11-05T22:45:13.711Z,22.40
2018-11-05T22:47:43.520Z,26.07
2018-11-05T22:50:12.608Z,23.17
2018-11-05T22:52:42.418Z,25.97
2018-11-05T22:55:11.663Z,26.90
2018-11-05T22:57:40.703Z,22.47
2018-11-05T23:00:17.966Z,21.33
2018-11-05T23:02:53.050Z,21.50
2018-11-05T23:05:22.233Z,21.00
2018-11-05T23:07:52.240Z,23.97
2018-11-05T23:10:21.703Z,21.63
2018-11-05T23:12:50.849Z,19.23
2018-11-05T23:15:20.645Z,22.57
2018-11-05T23:17:50.067Z,25.63
2018-11-05T23:20:19.226Z,24.07
2018-11-05T23:22:48.303Z,24.47
2018-11-05T23:25:17.331Z,21.53
2018-11-05T23:27:46.372Z,23.40
2018-11-05T23:30:15.550Z,23.07
2018-11-05T23:32:44.647Z,20.40
2018-11-05T23:35:13.788Z,24.13
2018-11-05T23:37:42.976Z,20.87
2018-11-05T23:40:12.082Z,20.90
2018-11-05T23:42:41.226Z,23.70
2018-11-05T23:45:12.845Z,20.43
2018-11-05T23:47:42.056Z,22.00
2018-11-05T23:50:11.680Z,23.57
2018-11-05T23:52:40.893Z,23.60
2018-11-05T23:55:10.890Z,24.93
2018-11-05T23:57:39.968Z,23.50
